Dousman, Wisconsin
Current Conditions -  °F | °C
As of 10:45 AM on Friday 28 Nov 2014 (Local Time) from KUES Reporting Station
Broken Clouds Broken Clouds  
Wind Chill:   Ceiling: 6500
Heat Index: 19°   Visibility: 10mi
Dew Point: 12°   Wind: 12mph
Humidity: 74%   Direction: 140°SE
Pressure: 30.14"   Gusts: NA
Location:  43.01°N, 88.47°W
Report Text: KUES 281645Z 14010KT 10SM SCT020 SCT025 BKN065 M07/M11 A3014
Loading
Personal Weather Stations






























Interactive Weather Map New forecast layout! Learn more

10-Day Weather Forecast

Advertisements
Track Severe Weather on mobile